Time;durP1;ratioP1;P1;durP2;ratioP2;P2;SDS_P1;SDS_P2;PMS_P1;PMS_P2;Temp;Humidity;BMP_temperature;BMP_pressure;BME280_temperature;BME280_humidity;BME280_pressure;Samples;Min_cycle;Max_cycle;Signal;HPM_P1;HPM_P2
2022/01/13 00:00:31;;;;;;;;;;;;;;;;;;5055153;28;19956;-84
2022/01/13 00:02:56;;;;;;;;;;;;;;;;;;5055252;28;19940;-86
2022/01/13 00:05:28;;;;;;;;;;;;;;;;;;5051248;28;19944;-89
2022/01/13 00:07:55;;;;;;;;;;;;;;;;;;5055884;28;19920;-88
2022/01/13 00:10:21;;;;;;;;;;;;;;;;;;5055700;28;20282;-89
2022/01/13 00:12:55;;;;;;;;;;;;;;;;;;5054356;28;19967;-90
2022/01/13 00:19:03;;;;;;;;;;;;;;;;;;5016054;28;19913;-89
2022/01/13 00:21:38;;;;;;;;;;;;;;;;;;4996432;28;20030;-90
2022/01/13 00:24:25;;;;;;;;;;;;;;;;;;4996574;28;20024;-87
2022/01/13 00:26:52;;;;;;;;;;;;;;;;;;5014176;28;19914;-90
2022/01/13 00:29:25;;;;;;;;;;;;;;;;;;5027629;28;19995;-89
2022/01/13 00:31:51;;;;;;;;;;;;;;;;;;5053677;28;19927;-90
2022/01/13 00:34:18;;;;;;;;;;;;;;;;;;5055288;28;19917;-85
2022/01/13 00:36:43;;;;;;;;;;;;;;;;;;5055275;28;19916;-88
2022/01/13 00:39:15;;;;;;;;;;;;;;;;;;5054192;28;19913;-89
2022/01/13 00:41:42;;;;;;;;;;;;;;;;;;5055011;28;19970;-87
2022/01/13 00:44:08;;;;;;;;;;;;;;;;;;5054962;28;19944;-89
2022/01/13 00:46:44;;;;;;;;;;;;;;;;;;5053681;28;19916;-90
2022/01/13 00:49:13;;;;;;;;;;;;;;;;;;5053606;28;19974;-90
2022/01/13 00:51:38;;;;;;;;;;;;;;;;;;5036842;28;19913;-90
2022/01/13 00:54:10;;;;;;;;;;;;;;;;;;5051739;28;19925;-87
2022/01/13 00:56:35;;;;;;;;;;;;;;;;;;5051752;28;19917;-89
2022/01/13 00:59:07;;;;;;;;;;;;;;;;;;5054537;28;20277;-87
2022/01/13 01:01:32;;;;;;;;;;;;;;;;;;5042286;28;19996;-87
2022/01/13 01:03:57;;;;;;;;;;;;;;;;;;5054388;28;19921;-87
2022/01/13 01:06:23;;;;;;;;;;;;;;;;;;5054492;28;20102;-90
2022/01/13 01:08:48;;;;;;;;;;;;;;;;;;5054499;28;20280;-88
2022/01/13 01:11:13;;;;;;;;;;;;;;;;;;5049455;28;20369;-90
2022/01/13 01:13:39;;;;;;;;;;;;;;;;;;5054162;28;20340;-88
2022/01/13 01:16:06;;;;;;;;;;;;;;;;;;5050656;28;20401;-88
2022/01/13 01:18:50;;;;;;;;;;;;;;;;;;5053969;28;20456;-85
2022/01/13 01:29:57;;;;;;;;;;;;;;;;;;5054132;28;19917;-86
2022/01/13 01:32:01;;;;;;;;;;;;;;;;;;5039589;28;19913;-90
2022/01/13 01:36:55;;;;;;;;;;;;;;;;;;5053884;28;20281;-89
2022/01/13 01:39:21;;;;;;;;;;;;;;;;;;5054010;28;19917;-85
2022/01/13 01:41:47;;;;;;;;;;;;;;;;;;5054173;28;19919;-89
2022/01/13 01:44:24;;;;;;;;;;;;;;;;;;5053174;28;20357;-86
2022/01/13 01:46:49;;;;;;;;;;;;;;;;;;5054174;28;20226;-87
2022/01/13 01:49:18;;;;;;;;;;;;;;;;;;5054143;28;19917;-86
2022/01/13 01:51:44;;;;;;;;;;;;;;;;;;5054152;28;20368;-88
2022/01/13 01:54:09;;;;;;;;;;;;;;;;;;5048369;28;19917;-85
2022/01/13 01:56:37;;;;;;;;;;;;;;;;;;5051883;28;19923;-88
2022/01/13 01:59:04;;;;;;;;;;;;;;;;;;5052834;28;19912;-87
2022/01/13 02:01:29;;;;;;;;;;;;;;;;;;5051203;28;19934;-88
2022/01/13 02:03:54;;;;;;;;;;;;;;;;;;5053641;28;19936;-86
2022/01/13 02:06:20;;;;;;;;;;;;;;;;;;5054285;28;19916;-87
2022/01/13 02:08:45;;;;;;;;;;;;;;;;;;5055630;28;19924;-87
2022/01/13 02:11:10;;;;;;;;;;;;;;;;;;5056165;28;20368;-88
2022/01/13 02:13:46;;;;;;;;;;;;;;;;;;5036805;28;20229;-86
2022/01/13 02:16:36;;;;;;;;;;;;;;;;;;5052893;28;19932;-88
2022/01/13 02:18:57;;;;;;;;;;;;;;;;;;5048292;28;19925;-85
2022/01/13 02:21:25;;;;;;;;;;;;;;;;;;5053111;28;20253;-88
2022/01/13 02:23:53;;;;;;;;;;;;;;;;;;5053831;28;19917;-88
2022/01/13 02:26:19;;;;;;;;;;;;;;;;;;5053157;28;19912;-84
2022/01/13 02:28:44;;;;;;;;;;;;;;;;;;5054705;28;20387;-88
2022/01/13 02:31:11;;;;;;;;;;;;;;;;;;5054429;28;20349;-88
2022/01/13 02:33:36;;;;;;;;;;;;;;;;;;5054867;28;19952;-88
2022/01/13 02:36:02;;;;;;;;;;;;;;;;;;5050586;28;20373;-84
2022/01/13 02:38:27;;;;;;;;;;;;;;;;;;5056105;28;20326;-88
2022/01/13 02:40:56;;;;;;;;;;;;;;;;;;5054696;28;19928;-86
2022/01/13 02:43:24;;;;;;;;;;;;;;;;;;5054421;28;19947;-87
2022/01/13 02:48:33;;;;;;;;;;;;;;;;;;5054033;28;19913;-88
2022/01/13 02:50:59;;;;;;;;;;;;;;;;;;5053372;28;19952;-84
2022/01/13 02:53:24;;;;;;;;;;;;;;;;;;5053073;28;19944;-89
2022/01/13 02:55:50;;;;;;;;;;;;;;;;;;5056965;28;19917;-89
2022/01/13 02:58:17;;;;;;;;;;;;;;;;;;5057236;28;19943;-88
2022/01/13 03:00:43;;;;;;;;;;;;;;;;;;5052852;28;20023;-89
2022/01/13 03:03:08;;;;;;;;;;;;;;;;;;5038388;28;20003;-87
2022/01/13 03:05:37;;;;;;;;;;;;;;;;;;5055989;28;19920;-88
2022/01/13 03:08:03;;;;;;;;;;;;;;;;;;5056963;28;19913;-88
2022/01/13 03:10:28;;;;;;;;;;;;;;;;;;5055443;28;19923;-86
2022/01/13 03:12:55;;;;;;;;;;;;;;;;;;5055597;28;19921;-88
2022/01/13 03:15:20;;;;;;;;;;;;;;;;;;5056754;28;19916;-87
2022/01/13 03:17:46;;;;;;;;;;;;;;;;;;5056689;28;19913;-86
2022/01/13 03:20:11;;;;;;;;;;;;;;;;;;5058538;28;19924;-87
2022/01/13 03:22:36;;;;;;;;;;;;;;;;;;5056244;28;19943;-87
2022/01/13 03:25:03;;;;;;;;;;;;;;;;;;5056441;28;19917;-87
2022/01/13 03:27:34;;;;;;;;;;;;;;;;;;5056658;28;20371;-86
2022/01/13 03:30:02;;;;;;;;;;;;;;;;;;5056365;28;20265;-88
2022/01/13 03:32:27;;;;;;;;;;;;;;;;;;5055340;28;19917;-83
2022/01/13 03:34:52;;;;;;;;;;;;;;;;;;5056663;28;19974;-85
2022/01/13 03:37:17;;;;;;;;;;;;;;;;;;5056170;28;20007;-89
2022/01/13 03:39:43;;;;;;;;;;;;;;;;;;5056727;28;19970;-87
2022/01/13 03:42:11;;;;;;;;;;;;;;;;;;5056291;28;19921;-87
2022/01/13 03:44:36;;;;;;;;;;;;;;;;;;5056807;28;19917;-87
2022/01/13 03:47:02;;;;;;;;;;;;;;;;;;5060160;28;19943;-90
2022/01/13 03:49:28;;;;;;;;;;;;;;;;;;5055417;28;19966;-87
2022/01/13 03:52:02;;;;;;;;;;;;;;;;;;5056382;28;19995;-90
2022/01/13 03:54:34;;;;;;;;;;;;;;;;;;5055641;28;19921;-89
2022/01/13 03:57:02;;;;;;;;;;;;;;;;;;5056230;28;19991;-88
2022/01/13 03:59:34;;;;;;;;;;;;;;;;;;5056155;28;20256;-87
2022/01/13 04:02:05;;;;;;;;;;;;;;;;;;5055943;28;19913;-88
2022/01/13 04:04:49;;;;;;;;;;;;;;;;;;5056546;28;19921;-89
2022/01/13 04:07:14;;;;;;;;;;;;;;;;;;5055560;28;20039;-87
2022/01/13 04:09:39;;;;;;;;;;;;;;;;;;5049103;28;20487;-89
2022/01/13 04:12:07;;;;;;;;;;;;;;;;;;5055601;28;19991;-88
2022/01/13 04:14:43;;;;;;;;;;;;;;;;;;5056023;28;19912;-88
2022/01/13 04:17:12;;;;;;;;;;;;;;;;;;5055786;28;19912;-86
2022/01/13 04:19:38;;;;;;;;;;;;;;;;;;5056022;28;20329;-89
2022/01/13 04:22:03;;;;;;;;;;;;;;;;;;5055272;28;19928;-85
2022/01/13 04:24:29;;;;;;;;;;;;;;;;;;5055660;28;19979;-83
2022/01/13 04:26:55;;;;;;;;;;;;;;;;;;5055440;28;19928;-83
2022/01/13 04:29:30;;;;;;;;;;;;;;;;;;5053629;28;19913;-87
2022/01/13 04:31:55;;;;;;;;;;;;;;;;;;5055652;28;19970;-85
2022/01/13 04:34:23;;;;;;;;;;;;;;;;;;5055423;28;19912;-88
2022/01/13 04:36:48;;;;;;;;;;;;;;;;;;5055734;28;19917;-88
2022/01/13 04:39:17;;;;;;;;;;;;;;;;;;5052758;28;19935;-87
2022/01/13 04:41:44;;;;;;;;;;;;;;;;;;5054404;28;19917;-89
2022/01/13 04:44:11;;;;;;;;;;;;;;;;;;5054004;28;20016;-87
2022/01/13 04:46:36;;;;;;;;;;;;;;;;;;5053761;28;19923;-88
2022/01/13 04:49:02;;;;;;;;;;;;;;;;;;5055099;28;19912;-91
2022/01/13 04:51:27;;;;;;;;;;;;;;;;;;5055044;28;20389;-88
2022/01/13 04:53:53;;;;;;;;;;;;;;;;;;5054895;28;20238;-87
2022/01/13 04:56:28;;;;;;;;;;;;;;;;;;5054456;28;19923;-87
2022/01/13 04:58:56;;;;;;;;;;;;;;;;;;5047627;28;20094;-82
2022/01/13 05:01:21;;;;;;;;;;;;;;;;;;5052601;28;20058;-90
2022/01/13 05:03:46;;;;;;;;;;;;;;;;;;5053245;28;20007;-85
2022/01/13 05:06:13;;;;;;;;;;;;;;;;;;5053855;28;19999;-86
2022/01/13 05:08:38;;;;;;;;;;;;;;;;;;5054639;28;20245;-88
2022/01/13 05:11:05;;;;;;;;;;;;;;;;;;5055191;28;19941;-89
2022/01/13 05:13:33;;;;;;;;;;;;;;;;;;5053979;28;19920;-86
2022/01/13 05:15:58;;;;;;;;;;;;;;;;;;5055027;28;19921;-89
2022/01/13 05:20:57;;;;;;;;;;;;;;;;;;5060213;28;20007;-84
2022/01/13 05:23:22;;;;;;;;;;;;;;;;;;5071063;28;19939;-85
2022/01/13 05:25:50;;;;;;;;;;;;;;;;;;5071057;28;19917;-79
2022/01/13 05:28:15;;;;;;;;;;;;;;;;;;5072611;28;19921;-89
2022/01/13 05:30:40;;;;;;;;;;;;;;;;;;5064489;28;19931;-84
2022/01/13 05:33:08;;;;;;;;;;;;;;;;;;5054908;28;19943;-90
2022/01/13 05:35:34;;;;;;;;;;;;;;;;;;5055576;28;20003;-89
2022/01/13 05:38:00;;;;;;;;;;;;;;;;;;5052966;28;20227;-90
2022/01/13 05:40:27;;;;;;;;;;;;;;;;;;5054835;28;20382;-85
2022/01/13 05:42:52;;;;;;;;;;;;;;;;;;5054342;28;19924;-87
2022/01/13 05:45:20;;;;;;;;;;;;;;;;;;5054300;28;19921;-89
2022/01/13 05:47:46;;;;;;;;;;;;;;;;;;5060005;28;19912;-89
2022/01/13 05:50:12;;;;;;;;;;;;;;;;;;5056492;28;20235;-87
2022/01/13 05:52:37;;;;;;;;;;;;;;;;;;5061849;28;19912;-87
2022/01/13 05:55:03;;;;;;;;;;;;;;;;;;5056421;28;19917;-83
2022/01/13 05:57:29;;;;;;;;;;;;;;;;;;5054467;28;19927;-89
2022/01/13 05:59:54;;;;;;;;;;;;;;;;;;5054852;28;20343;-86
2022/01/13 06:02:19;;;;;;;;;;;;;;;;;;5061260;28;19976;-83
2022/01/13 06:04:45;;;;;;;;;;;;;;;;;;5066639;28;19939;-85
2022/01/13 06:07:12;;;;;;;;;;;;;;;;;;5054910;28;19912;-87
2022/01/13 06:09:39;;;;;;;;;;;;;;;;;;5060230;28;19942;-89
2022/01/13 06:12:05;;;;;;;;;;;;;;;;;;5059479;28;19948;-84
2022/01/13 06:14:31;;;;;;;;;;;;;;;;;;5054758;28;19975;-87
2022/01/13 06:16:58;;;;;;;;;;;;;;;;;;5056270;28;20409;-91
2022/01/13 06:19:26;;;;;;;;;;;;;;;;;;5059995;28;19927;-87
2022/01/13 06:21:51;;;;;;;;;;;;;;;;;;5061710;28;19921;-90
2022/01/13 06:24:19;;;;;;;;;;;;;;;;;;5055195;28;20365;-86
2022/01/13 06:26:44;;;;;;;;;;;;;;;;;;5054619;28;19952;-89
2022/01/13 06:29:12;;;;;;;;;;;;;;;;;;5056079;28;20452;-90
2022/01/13 06:31:37;;;;;;;;;;;;;;;;;;5057871;28;20015;-84
2022/01/13 06:34:02;;;;;;;;;;;;;;;;;;5058445;28;20464;-85
2022/01/13 06:36:28;;;;;;;;;;;;;;;;;;5056613;28;19917;-87
2022/01/13 06:38:54;;;;;;;;;;;;;;;;;;5056683;28;19920;-89
2022/01/13 06:41:19;;;;;;;;;;;;;;;;;;5057845;28;20309;-89
2022/01/13 06:43:44;;;;;;;;;;;;;;;;;;5057442;28;19916;-88
2022/01/13 06:46:14;;;;;;;;;;;;;;;;;;5057097;28;19913;-90
2022/01/13 06:48:39;;;;;;;;;;;;;;;;;;5056727;28;19913;-87
2022/01/13 06:51:05;;;;;;;;;;;;;;;;;;5057495;28;19913;-90
2022/01/13 06:53:30;;;;;;;;;;;;;;;;;;5057279;28;19917;-87
2022/01/13 06:55:55;;;;;;;;;;;;;;;;;;5057424;28;20370;-88
2022/01/13 06:58:20;;;;;;;;;;;;;;;;;;5057329;28;19928;-88
2022/01/13 07:00:45;;;;;;;;;;;;;;;;;;5057498;28;19917;-86
2022/01/13 07:03:11;;;;;;;;;;;;;;;;;;5057072;28;19974;-87
2022/01/13 07:05:36;;;;;;;;;;;;;;;;;;5056911;28;19931;-86
2022/01/13 07:08:02;;;;;;;;;;;;;;;;;;5056277;28;19916;-89
2022/01/13 07:10:27;;;;;;;;;;;;;;;;;;5056918;28;19947;-87
2022/01/13 07:12:52;;;;;;;;;;;;;;;;;;5057050;28;19946;-90
2022/01/13 07:15:18;;;;;;;;;;;;;;;;;;5057357;28;19966;-89
2022/01/13 07:17:45;;;;;;;;;;;;;;;;;;5057267;28;19917;-90
2022/01/13 07:20:10;;;;;;;;;;;;;;;;;;5050465;28;20302;-85
2022/01/13 07:22:37;;;;;;;;;;;;;;;;;;5057007;28;19917;-85
2022/01/13 07:25:02;;;;;;;;;;;;;;;;;;5057166;28;20027;-90
2022/01/13 07:27:27;;;;;;;;;;;;;;;;;;5057011;28;19948;-90
2022/01/13 07:29:52;;;;;;;;;;;;;;;;;;5062036;28;19912;-88
2022/01/13 07:32:23;;;;;;;;;;;;;;;;;;5039851;28;19916;-91
2022/01/13 07:34:50;;;;;;;;;;;;;;;;;;5039239;28;19916;-90
2022/01/13 07:37:18;;;;;;;;;;;;;;;;;;5055723;28;19917;-91
2022/01/13 07:39:43;;;;;;;;;;;;;;;;;;5057465;28;20253;-91
2022/01/13 07:42:09;;;;;;;;;;;;;;;;;;5056759;28;19991;-90
2022/01/13 07:44:34;;;;;;;;;;;;;;;;;;5035569;28;20016;-90
2022/01/13 07:47:00;;;;;;;;;;;;;;;;;;5056481;28;19964;-88
2022/01/13 07:49:26;;;;;;;;;;;;;;;;;;5056767;28;19913;-91
2022/01/13 07:51:51;;;;;;;;;;;;;;;;;;5055370;28;19925;-91
2022/01/13 07:54:16;;;;;;;;;;;;;;;;;;5056344;28;19916;-89
2022/01/13 07:56:42;;;;;;;;;;;;;;;;;;5055088;28;19912;-88
2022/01/13 07:59:09;;;;;;;;;;;;;;;;;;5056200;28;19923;-91
2022/01/13 08:01:34;;;;;;;;;;;;;;;;;;5037721;28;19921;-90
2022/01/13 08:03:59;;;;;;;;;;;;;;;;;;5048502;28;19920;-91
2022/01/13 08:06:25;;;;;;;;;;;;;;;;;;5056249;28;20379;-89
2022/01/13 08:08:50;;;;;;;;;;;;;;;;;;5049637;28;19928;-85
2022/01/13 08:11:16;;;;;;;;;;;;;;;;;;5049619;28;19999;-90
2022/01/13 08:13:41;;;;;;;;;;;;;;;;;;5055193;28;19923;-90
2022/01/13 08:16:09;;;;;;;;;;;;;;;;;;5057027;28;19916;-89
2022/01/13 08:21:24;;;;;;;;;;;;;;;;;;5056417;28;20373;-87
2022/01/13 08:23:52;;;;;;;;;;;;;;;;;;5056229;28;20309;-87
2022/01/13 08:26:17;;;;;;;;;;;;;;;;;;5053130;28;19917;-88
2022/01/13 08:28:42;;;;;;;;;;;;;;;;;;5051805;28;20357;-90
2022/01/13 08:31:08;;;;;;;;;;;;;;;;;;5038544;28;19966;-90
2022/01/13 08:33:33;;;;;;;;;;;;;;;;;;5055525;28;20019;-90
2022/01/13 08:35:58;;;;;;;;;;;;;;;;;;5055764;28;20254;-87
2022/01/13 08:38:24;;;;;;;;;;;;;;;;;;5055027;28;20003;-87
2022/01/13 08:43:42;;;;;;;;;;;;;;;;;;5053317;28;19999;-89
2022/01/13 08:46:07;;;;;;;;;;;;;;;;;;5051549;28;20020;-89
2022/01/13 08:48:33;;;;;;;;;;;;;;;;;;5053716;28;19926;-86
2022/01/13 08:50:59;;;;;;;;;;;;;;;;;;5051104;28;19998;-90
2022/01/13 08:53:30;;;;;;;;;;;;;;;;;;5051202;28;19924;-87
2022/01/13 08:55:55;;;;;;;;;;;;;;;;;;5045980;28;19921;-87
2022/01/13 08:58:22;;;;;;;;;;;;;;;;;;5047630;28;19943;-89
2022/01/13 09:00:48;;;;;;;;;;;;;;;;;;5052960;28;19917;-86
2022/01/13 09:03:16;;;;;;;;;;;;;;;;;;5050680;28;19917;-89
2022/01/13 09:05:42;;;;;;;;;;;;;;;;;;5050183;28;19920;-87
2022/01/13 09:08:07;;;;;;;;;;;;;;;;;;5054919;28;20050;-90
2022/01/13 09:10:33;;;;;;;;;;;;;;;;;;5050436;28;20001;-89
2022/01/13 09:12:58;;;;;;;;;;;;;;;;;;5054568;28;20427;-88
2022/01/13 09:15:38;;;;;;;;;;;;;;;;;;5053676;28;20249;-90
2022/01/13 09:18:15;;;;;;;;;;;;;;;;;;5054274;28;20277;-90
2022/01/13 09:20:41;;;;;;;;;;;;;;;;;;5056216;28;19917;-88
2022/01/13 09:23:07;;;;;;;;;;;;;;;;;;5050998;28;19935;-91
2022/01/13 09:25:33;;;;;;;;;;;;;;;;;;5052035;28;19921;-89
2022/01/13 09:27:58;;;;;;;;;;;;;;;;;;5033785;28;20316;-90
2022/01/13 09:30:24;;;;;;;;;;;;;;;;;;5056601;28;19916;-91
2022/01/13 09:32:51;;;;;;;;;;;;;;;;;;5056728;28;19983;-90
2022/01/13 09:35:19;;;;;;;;;;;;;;;;;;5053728;28;19917;-87
2022/01/13 09:37:46;;;;;;;;;;;;;;;;;;5053092;28;19916;-90
2022/01/13 09:40:12;;;;;;;;;;;;;;;;;;5054316;28;20340;-87
2022/01/13 09:42:39;;;;;;;;;;;;;;;;;;5053210;28;19944;-88
2022/01/13 09:45:05;;;;;;;;;;;;;;;;;;5051961;28;19933;-84
2022/01/13 09:47:30;;;;;;;;;;;;;;;;;;5052180;28;19996;-88
2022/01/13 09:49:57;;;;;;;;;;;;;;;;;;5051904;28;20257;-87
2022/01/13 09:52:22;;;;;;;;;;;;;;;;;;5051498;28;19916;-88
2022/01/13 09:54:48;;;;;;;;;;;;;;;;;;5046957;28;19925;-81
2022/01/13 09:57:13;;;;;;;;;;;;;;;;;;5033862;28;20258;-85
2022/01/13 10:00:00;;;;;;;;;;;;;;;;;;5046366;28;19927;-84
2022/01/13 10:02:30;;;;;;;;;;;;;;;;;;5057111;28;20269;-84
2022/01/13 10:05:08;;;;;;;;;;;;;;;;;;5056599;28;20034;-86
2022/01/13 10:07:35;;;;;;;;;;;;;;;;;;5066232;28;19917;-81
2022/01/13 10:10:02;;;;;;;;;;;;;;;;;;5060510;28;19917;-85
2022/01/13 10:12:38;;;;;;;;;;;;;;;;;;5043402;28;19921;-83
2022/01/13 10:17:33;;;;;;;;;;;;;;;;;;5056356;28;20007;-85
2022/01/13 10:19:58;;;;;;;;;;;;;;;;;;5053684;28;19948;-85
2022/01/13 10:22:31;;;;;;;;;;;;;;;;;;5038433;28;19986;-85
2022/01/13 10:24:59;;;;;;;;;;;;;;;;;;5053875;28;19920;-84
2022/01/13 10:27:28;;;;;;;;;;;;;;;;;;5053268;28;20381;-88
2022/01/13 10:29:57;;;;;;;;;;;;;;;;;;5047217;28;19948;-85
2022/01/13 10:32:23;;;;;;;;;;;;;;;;;;5054341;28;19917;-89
2022/01/13 10:34:49;;;;;;;;;;;;;;;;;;5054137;28;20011;-83
2022/01/13 10:37:45;;;;;;;;;;;;;;;;;;5038196;28;19920;-83
2022/01/13 10:40:34;;;;;;;;;;;;;;;;;;5054483;28;19939;-87
2022/01/13 10:45:30;;;;;;;;;;;;;;;;;;5049776;28;19931;-84
2022/01/13 10:48:02;;;;;;;;;;;;;;;;;;5049376;28;19947;-84
2022/01/13 10:50:38;;;;;;;;;;;;;;;;;;5053063;28;20354;-86
2022/01/13 10:53:08;;;;;;;;;;;;;;;;;;5044844;28;19924;-84
2022/01/13 10:55:38;;;;;;;;;;;;;;;;;;5055839;28;20433;-83
2022/01/13 10:58:03;;;;;;;;;;;;;;;;;;5067820;28;19928;-84
2022/01/13 11:00:30;;;;;;;;;;;;;;;;;;5053437;28;20285;-86
2022/01/13 11:02:58;;;;;;;;;;;;;;;;;;5051628;28;19916;-84
2022/01/13 11:05:24;;;;;;;;;;;;;;;;;;5054474;28;20370;-83
2022/01/13 11:07:49;;;;;;;;;;;;;;;;;;5037494;28;19998;-84
2022/01/13 11:10:17;;;;;;;;;;;;;;;;;;5055164;28;19928;-87
2022/01/13 11:18:58;;;;;;;;;;;;;;;;;;4998876;28;19975;-87
2022/01/13 11:21:23;;;;;;;;;;;;;;;;;;5017951;28;20465;-88
2022/01/13 11:23:49;;;;;;;;;;;;;;;;;;5000197;28;20004;-86
2022/01/13 11:26:14;;;;;;;;;;;;;;;;;;4990336;28;19922;-85
2022/01/13 11:28:50;;;;;;;;;;;;;;;;;;4980843;28;19987;-82
2022/01/13 11:31:15;;;;;;;;;;;;;;;;;;4986415;28;19949;-86
2022/01/13 11:33:40;;;;;;;;;;;;;;;;;;5000799;28;19980;-83
2022/01/13 11:36:07;;;;;;;;;;;;;;;;;;5004421;28;19941;-85
2022/01/13 11:38:32;;;;;;;;;;;;;;;;;;5006595;28;19952;-85
2022/01/13 11:41:00;;;;;;;;;;;;;;;;;;5006373;28;19917;-84
2022/01/13 11:43:33;;;;;;;;;;;;;;;;;;4991824;28;20432;-83
2022/01/13 11:46:14;;;;;;;;;;;;;;;;;;4998792;28;20558;-83
2022/01/13 11:48:42;;;;;;;;;;;;;;;;;;5002631;28;19992;-84
2022/01/13 11:51:29;;;;;;;;;;;;;;;;;;5004329;28;19976;-80
2022/01/13 11:53:59;;;;;;;;;;;;;;;;;;5055006;28;19920;-83
2022/01/13 11:56:37;;;;;;;;;;;;;;;;;;5033892;28;19928;-82
2022/01/13 11:59:11;;;;;;;;;;;;;;;;;;5053368;28;19924;-81
2022/01/13 12:01:38;;;;;;;;;;;;;;;;;;5038349;28;19919;-81
2022/01/13 12:04:07;;;;;;;;;;;;;;;;;;5036283;28;19920;-82
2022/01/13 12:09:35;;;;;;;;;;;;;;;;;;5049623;28;19939;-83
2022/01/13 12:12:00;;;;;;;;;;;;;;;;;;5054568;28;19921;-82
2022/01/13 12:14:31;;;;;;;;;;;;;;;;;;5054078;28;20238;-80
2022/01/13 12:17:27;;;;;;;;;;;;;;;;;;5049634;28;19960;-80
2022/01/13 12:20:00;;;;;;;;;;;;;;;;;;5036206;28;20243;-81
2022/01/13 12:22:41;;;;;;;;;;;;;;;;;;5054583;28;20341;-79
2022/01/13 12:25:14;;;;;;;;;;;;;;;;;;5052783;28;19920;-80
2022/01/13 12:27:39;;;;;;;;;;;;;;;;;;5036170;28;19912;-80
2022/01/13 12:30:09;;;;;;;;;;;;;;;;;;5052375;28;19921;-83
2022/01/13 12:32:47;;;;;;;;;;;;;;;;;;5036803;28;19920;-81
2022/01/13 12:35:14;;;;;;;;;;;;;;;;;;5050122;28;19923;-82
2022/01/13 12:40:43;;;;;;;;;;;;;;;;;;5050230;28;20234;-82
2022/01/13 12:44:01;;;;;;;;;;;;;;;;;;5053822;28;19972;-77
2022/01/13 12:46:27;;;;;;;;;;;;;;;;;;5014955;28;20039;-85
2022/01/13 12:48:53;;;;;;;;;;;;;;;;;;5053467;28;19916;-87
2022/01/13 12:51:24;;;;;;;;;;;;;;;;;;5052496;28;19916;-86
2022/01/13 12:53:49;;;;;;;;;;;;;;;;;;5048961;28;19920;-86
2022/01/13 12:56:19;;;;;;;;;;;;;;;;;;5051244;28;19921;-85
2022/01/13 12:58:45;;;;;;;;;;;;;;;;;;5055321;28;19931;-85
2022/01/13 13:01:15;;;;;;;;;;;;;;;;;;5051823;28;19979;-82
2022/01/13 13:03:40;;;;;;;;;;;;;;;;;;5053074;28;19912;-80
2022/01/13 13:06:13;;;;;;;;;;;;;;;;;;5050635;28;19928;-82
2022/01/13 13:08:41;;;;;;;;;;;;;;;;;;5052864;28;19967;-81
2022/01/13 13:11:06;;;;;;;;;;;;;;;;;;5052172;28;19935;-81
2022/01/13 13:13:34;;;;;;;;;;;;;;;;;;5053658;28;20003;-82
2022/01/13 13:16:03;;;;;;;;;;;;;;;;;;5048551;28;19923;-78
2022/01/13 13:18:29;;;;;;;;;;;;;;;;;;5052304;28;19917;-86
2022/01/13 13:20:55;;;;;;;;;;;;;;;;;;5053467;28;20264;-86
2022/01/13 13:23:24;;;;;;;;;;;;;;;;;;5051866;28;19917;-86
2022/01/13 13:25:54;;;;;;;;;;;;;;;;;;5052698;28;19920;-87
2022/01/13 13:28:25;;;;;;;;;;;;;;;;;;5050170;28;19917;-84
2022/01/13 13:30:51;;;;;;;;;;;;;;;;;;5050139;28;19913;-87
2022/01/13 13:33:18;;;;;;;;;;;;;;;;;;5054458;28;19925;-87
2022/01/13 13:35:45;;;;;;;;;;;;;;;;;;5053574;28;19921;-84
2022/01/13 13:38:12;;;;;;;;;;;;;;;;;;5054414;28;20038;-87
2022/01/13 13:40:44;;;;;;;;;;;;;;;;;;5054004;28;19916;-87
2022/01/13 13:43:09;;;;;;;;;;;;;;;;;;5050186;28;19920;-86
2022/01/13 13:45:35;;;;;;;;;;;;;;;;;;5049996;28;19924;-86
2022/01/13 13:48:00;;;;;;;;;;;;;;;;;;5053688;28;20003;-85
2022/01/13 13:50:26;;;;;;;;;;;;;;;;;;5052663;28;19966;-84
2022/01/13 13:53:28;;;;;;;;;;;;;;;;;;5052439;28;19913;-82
2022/01/13 13:55:58;;;;;;;;;;;;;;;;;;5020536;28;19917;-83
2022/01/13 13:58:23;;;;;;;;;;;;;;;;;;5048239;28;19928;-84
2022/01/13 14:00:48;;;;;;;;;;;;;;;;;;5035145;28;19916;-81
2022/01/13 14:03:21;;;;;;;;;;;;;;;;;;5051979;28;19932;-82
2022/01/13 14:05:46;;;;;;;;;;;;;;;;;;5042739;28;19928;-84
2022/01/13 14:11:14;;;;;;;;;;;;;;;;;;5052687;28;19940;-81
2022/01/13 14:13:39;;;;;;;;;;;;;;;;;;5052074;28;19992;-81
2022/01/13 14:16:05;;;;;;;;;;;;;;;;;;5052279;28;20350;-82
2022/01/13 14:18:30;;;;;;;;;;;;;;;;;;5053183;28;19979;-81
2022/01/13 14:21:00;;;;;;;;;;;;;;;;;;5053140;28;20273;-81
2022/01/13 14:23:25;;;;;;;;;;;;;;;;;;5053429;28;19921;-82
2022/01/13 14:26:06;;;;;;;;;;;;;;;;;;5053801;28;20361;-81
2022/01/13 14:28:32;;;;;;;;;;;;;;;;;;5052356;28;19918;-81
2022/01/13 14:31:25;;;;;;;;;;;;;;;;;;5051229;28;19951;-85
2022/01/13 14:33:50;;;;;;;;;;;;;;;;;;5052019;28;19917;-86
2022/01/13 14:36:17;;;;;;;;;;;;;;;;;;5048248;28;19975;-84
2022/01/13 14:38:52;;;;;;;;;;;;;;;;;;5043210;28;19961;-85
2022/01/13 14:41:26;;;;;;;;;;;;;;;;;;5054790;28;19917;-85
2022/01/13 14:43:57;;;;;;;;;;;;;;;;;;5041947;28;20285;-84
2022/01/13 14:46:22;;;;;;;;;;;;;;;;;;5047109;28;19913;-84
2022/01/13 14:48:48;;;;;;;;;;;;;;;;;;5050654;28;19917;-83
2022/01/13 14:51:14;;;;;;;;;;;;;;;;;;5053164;28;19925;-85
2022/01/13 14:53:39;;;;;;;;;;;;;;;;;;5054283;28;19916;-86
2022/01/13 14:56:05;;;;;;;;;;;;;;;;;;5049462;28;19916;-86
2022/01/13 14:58:32;;;;;;;;;;;;;;;;;;5046415;28;19942;-87
2022/01/13 15:00:58;;;;;;;;;;;;;;;;;;5056014;28;19913;-86
2022/01/13 15:03:28;;;;;;;;;;;;;;;;;;5052981;28;20494;-85
2022/01/13 15:05:54;;;;;;;;;;;;;;;;;;5053503;28;19928;-83
2022/01/13 15:08:19;;;;;;;;;;;;;;;;;;5056258;28;19913;-84
2022/01/13 15:10:44;;;;;;;;;;;;;;;;;;5056179;28;20361;-84
2022/01/13 15:13:10;;;;;;;;;;;;;;;;;;5059461;28;20039;-83
2022/01/13 15:15:37;;;;;;;;;;;;;;;;;;5038132;28;19917;-83
2022/01/13 15:18:03;;;;;;;;;;;;;;;;;;5057005;28;20301;-84
2022/01/13 15:20:30;;;;;;;;;;;;;;;;;;5056813;28;19917;-84
2022/01/13 15:22:56;;;;;;;;;;;;;;;;;;5055438;28;20476;-83
2022/01/13 15:25:21;;;;;;;;;;;;;;;;;;5055957;28;19935;-84
2022/01/13 15:27:49;;;;;;;;;;;;;;;;;;5057493;28;19930;-84
2022/01/13 15:30:14;;;;;;;;;;;;;;;;;;5056347;28;20325;-83
2022/01/13 15:32:39;;;;;;;;;;;;;;;;;;5057272;28;20000;-83
2022/01/13 15:35:05;;;;;;;;;;;;;;;;;;5057519;28;19975;-84
2022/01/13 15:37:30;;;;;;;;;;;;;;;;;;5057072;28;19923;-84
2022/01/13 15:39:55;;;;;;;;;;;;;;;;;;5056585;28;19928;-84
2022/01/13 15:42:20;;;;;;;;;;;;;;;;;;5039209;28;19920;-84
2022/01/13 15:44:46;;;;;;;;;;;;;;;;;;5056918;28;19927;-82
2022/01/13 15:47:11;;;;;;;;;;;;;;;;;;5048790;28;19931;-83
2022/01/13 15:49:39;;;;;;;;;;;;;;;;;;5056634;28;19923;-84
2022/01/13 15:52:04;;;;;;;;;;;;;;;;;;5039371;28;19921;-83
2022/01/13 15:54:30;;;;;;;;;;;;;;;;;;5056912;28;19966;-83
2022/01/13 15:56:55;;;;;;;;;;;;;;;;;;5055467;28;20364;-84
2022/01/13 15:59:20;;;;;;;;;;;;;;;;;;5056054;28;19913;-83
2022/01/13 16:01:45;;;;;;;;;;;;;;;;;;5055260;28;19958;-85
2022/01/13 16:04:11;;;;;;;;;;;;;;;;;;5056025;28;19927;-85
2022/01/13 16:06:36;;;;;;;;;;;;;;;;;;5055878;28;19913;-83
2022/01/13 16:09:02;;;;;;;;;;;;;;;;;;5038085;28;19916;-84
2022/01/13 16:11:28;;;;;;;;;;;;;;;;;;5056166;28;19913;-85
2022/01/13 16:13:56;;;;;;;;;;;;;;;;;;5054513;28;20290;-84
2022/01/13 16:16:24;;;;;;;;;;;;;;;;;;5056571;28;20511;-85
2022/01/13 16:18:50;;;;;;;;;;;;;;;;;;5055755;28;20271;-84
2022/01/13 16:21:15;;;;;;;;;;;;;;;;;;5054579;28;19916;-84
2022/01/13 16:23:40;;;;;;;;;;;;;;;;;;5055733;28;19966;-83
2022/01/13 16:26:05;;;;;;;;;;;;;;;;;;5055541;28;19939;-86
2022/01/13 16:28:33;;;;;;;;;;;;;;;;;;5054727;28;19913;-84
2022/01/13 16:30:58;;;;;;;;;;;;;;;;;;5054592;28;19912;-84
2022/01/13 16:33:24;;;;;;;;;;;;;;;;;;5055158;28;20452;-84
2022/01/13 16:35:49;;;;;;;;;;;;;;;;;;5055655;28;19916;-83
2022/01/13 16:38:15;;;;;;;;;;;;;;;;;;5051123;28;19921;-84
2022/01/13 16:40:41;;;;;;;;;;;;;;;;;;5053792;28;19916;-84
2022/01/13 16:43:09;;;;;;;;;;;;;;;;;;5054595;28;20260;-85
2022/01/13 16:45:36;;;;;;;;;;;;;;;;;;5038104;28;19966;-83
2022/01/13 16:48:02;;;;;;;;;;;;;;;;;;5055246;28;19935;-84
2022/01/13 16:50:30;;;;;;;;;;;;;;;;;;5037656;28;19913;-84
2022/01/13 16:52:55;;;;;;;;;;;;;;;;;;5055372;28;19939;-84
2022/01/13 16:55:24;;;;;;;;;;;;;;;;;;5052775;28;20362;-84
2022/01/13 16:57:50;;;;;;;;;;;;;;;;;;5045746;28;19917;-84
2022/01/13 17:00:15;;;;;;;;;;;;;;;;;;5054201;28;19923;-82
2022/01/13 17:02:41;;;;;;;;;;;;;;;;;;5053921;28;20246;-84
2022/01/13 17:05:09;;;;;;;;;;;;;;;;;;5054689;28;20019;-84
2022/01/13 17:07:34;;;;;;;;;;;;;;;;;;5053979;28;19983;-85
2022/01/13 17:10:02;;;;;;;;;;;;;;;;;;5054001;28;20322;-85
2022/01/13 17:12:27;;;;;;;;;;;;;;;;;;5054373;28;20285;-84
2022/01/13 17:14:52;;;;;;;;;;;;;;;;;;5064849;28;19928;-85
2022/01/13 17:17:18;;;;;;;;;;;;;;;;;;5037305;28;19912;-84
2022/01/13 17:19:49;;;;;;;;;;;;;;;;;;5055068;28;19978;-84
2022/01/13 17:22:17;;;;;;;;;;;;;;;;;;5053744;28;20369;-84
2022/01/13 17:24:42;;;;;;;;;;;;;;;;;;5054365;28;19917;-84
2022/01/13 17:27:07;;;;;;;;;;;;;;;;;;5054185;28;20414;-84
2022/01/13 17:29:35;;;;;;;;;;;;;;;;;;5053571;28;19928;-85
2022/01/13 17:32:00;;;;;;;;;;;;;;;;;;5053841;28;19934;-84
2022/01/13 17:34:25;;;;;;;;;;;;;;;;;;5053936;28;20355;-85